sensor_id;sensor_type;location;lat;lon;timestamp;P1;durP1;ratioP1;P2;durP2;ratioP2
52468;SDS011;38381;53.688;10.776;2023-12-04T00:04:01;14.55;;;11.48;;
52468;SDS011;38381;53.688;10.776;2023-12-04T00:09:02;20.00;;;11.63;;
52468;SDS011;38381;53.688;10.776;2023-12-04T00:14:02;16.67;;;12.18;;
52468;SDS011;38381;53.688;10.776;2023-12-04T00:19:03;15.45;;;12.43;;
52468;SDS011;38381;53.688;10.776;2023-12-04T00:24:04;17.75;;;11.88;;
52468;SDS011;38381;53.688;10.776;2023-12-04T00:29:04;18.60;;;12.88;;
52468;SDS011;38381;53.688;10.776;2023-12-04T00:34:05;16.40;;;12.52;;
52468;SDS011;38381;53.688;10.776;2023-12-04T00:39:05;16.83;;;11.65;;
52468;SDS011;38381;53.688;10.776;2023-12-04T00:44:06;18.13;;;14.00;;
52468;SDS011;38381;53.688;10.776;2023-12-04T00:49:06;17.73;;;13.43;;
52468;SDS011;38381;53.688;10.776;2023-12-04T00:54:06;23.25;;;13.43;;
52468;SDS011;38381;53.688;10.776;2023-12-04T00:59:08;18.13;;;13.10;;
52468;SDS011;38381;53.688;10.776;2023-12-04T01:04:09;23.10;;;16.77;;
52468;SDS011;38381;53.688;10.776;2023-12-04T01:09:09;18.58;;;14.90;;
52468;SDS011;38381;53.688;10.776;2023-12-04T01:14:10;20.73;;;15.95;;
52468;SDS011;38381;53.688;10.776;2023-12-04T01:19:10;20.48;;;15.77;;
52468;SDS011;38381;53.688;10.776;2023-12-04T01:24:10;23.83;;;15.20;;
52468;SDS011;38381;53.688;10.776;2023-12-04T01:29:11;20.60;;;15.05;;
52468;SDS011;38381;53.688;10.776;2023-12-04T01:34:11;19.45;;;14.20;;
52468;SDS011;38381;53.688;10.776;2023-12-04T01:39:12;23.33;;;14.48;;
52468;SDS011;38381;53.688;10.776;2023-12-04T01:44:12;24.98;;;15.13;;
52468;SDS011;38381;53.688;10.776;2023-12-04T01:49:13;21.95;;;16.73;;
52468;SDS011;38381;53.688;10.776;2023-12-04T01:54:14;20.63;;;15.30;;
52468;SDS011;38381;53.688;10.776;2023-12-04T01:59:15;23.70;;;16.47;;
52468;SDS011;38381;53.688;10.776;2023-12-04T02:04:16;20.50;;;14.52;;
52468;SDS011;38381;53.688;10.776;2023-12-04T02:09:16;20.42;;;15.45;;
52468;SDS011;38381;53.688;10.776;2023-12-04T02:14:16;19.85;;;14.60;;
52468;SDS011;38381;53.688;10.776;2023-12-04T02:19:17;18.67;;;13.90;;
52468;SDS011;38381;53.688;10.776;2023-12-04T02:24:17;22.77;;;14.98;;
52468;SDS011;38381;53.688;10.776;2023-12-04T02:29:21;19.20;;;15.98;;
52468;SDS011;38381;53.688;10.776;2023-12-04T02:34:26;20.25;;;15.93;;
52468;SDS011;38381;53.688;10.776;2023-12-04T02:39:29;22.98;;;14.52;;
52468;SDS011;38381;53.688;10.776;2023-12-04T02:44:29;22.95;;;14.15;;
52468;SDS011;38381;53.688;10.776;2023-12-04T02:49:29;19.65;;;15.05;;
52468;SDS011;38381;53.688;10.776;2023-12-04T02:54:30;22.67;;;15.07;;
52468;SDS011;38381;53.688;10.776;2023-12-04T02:59:30;22.45;;;15.98;;
52468;SDS011;38381;53.688;10.776;2023-12-04T03:04:31;23.13;;;15.82;;
52468;SDS011;38381;53.688;10.776;2023-12-04T03:09:31;19.52;;;15.07;;
52468;SDS011;38381;53.688;10.776;2023-12-04T03:14:32;19.58;;;14.90;;
52468;SDS011;38381;53.688;10.776;2023-12-04T03:19:32;22.50;;;16.90;;
52468;SDS011;38381;53.688;10.776;2023-12-04T03:24:32;18.80;;;14.65;;
52468;SDS011;38381;53.688;10.776;2023-12-04T03:29:33;25.08;;;16.80;;
52468;SDS011;38381;53.688;10.776;2023-12-04T03:34:33;21.80;;;16.83;;
52468;SDS011;38381;53.688;10.776;2023-12-04T03:39:34;23.15;;;15.43;;
52468;SDS011;38381;53.688;10.776;2023-12-04T03:44:34;24.15;;;18.60;;
52468;SDS011;38381;53.688;10.776;2023-12-04T03:49:34;24.70;;;17.88;;
52468;SDS011;38381;53.688;10.776;2023-12-04T03:54:35;20.95;;;15.98;;
52468;SDS011;38381;53.688;10.776;2023-12-04T03:59:35;21.48;;;15.40;;
52468;SDS011;38381;53.688;10.776;2023-12-04T04:04:35;21.58;;;16.52;;
52468;SDS011;38381;53.688;10.776;2023-12-04T04:09:36;22.52;;;15.73;;
52468;SDS011;38381;53.688;10.776;2023-12-04T04:14:36;21.48;;;16.23;;
52468;SDS011;38381;53.688;10.776;2023-12-04T04:19:37;23.77;;;20.15;;
52468;SDS011;38381;53.688;10.776;2023-12-04T04:24:38;20.20;;;16.88;;
52468;SDS011;38381;53.688;10.776;2023-12-04T04:29:38;24.50;;;17.35;;
52468;SDS011;38381;53.688;10.776;2023-12-04T04:34:39;23.38;;;16.02;;
52468;SDS011;38381;53.688;10.776;2023-12-04T04:39:39;23.80;;;17.38;;
52468;SDS011;38381;53.688;10.776;2023-12-04T04:44:40;20.63;;;17.17;;
52468;SDS011;38381;53.688;10.776;2023-12-04T04:49:40;23.73;;;18.73;;
52468;SDS011;38381;53.688;10.776;2023-12-04T04:54:42;27.97;;;16.80;;
52468;SDS011;38381;53.688;10.776;2023-12-04T04:59:42;22.95;;;17.08;;
52468;SDS011;38381;53.688;10.776;2023-12-04T05:04:43;24.98;;;17.20;;
52468;SDS011;38381;53.688;10.776;2023-12-04T05:09:43;24.42;;;18.85;;
52468;SDS011;38381;53.688;10.776;2023-12-04T05:14:43;23.25;;;17.27;;
52468;SDS011;38381;53.688;10.776;2023-12-04T05:19:44;25.92;;;18.85;;
52468;SDS011;38381;53.688;10.776;2023-12-04T05:24:44;27.98;;;20.20;;
52468;SDS011;38381;53.688;10.776;2023-12-04T05:29:45;27.23;;;19.30;;
52468;SDS011;38381;53.688;10.776;2023-12-04T05:34:46;29.13;;;19.88;;
52468;SDS011;38381;53.688;10.776;2023-12-04T05:39:47;29.83;;;20.38;;
52468;SDS011;38381;53.688;10.776;2023-12-04T05:44:47;25.42;;;18.92;;
52468;SDS011;38381;53.688;10.776;2023-12-04T05:49:48;25.35;;;19.75;;
52468;SDS011;38381;53.688;10.776;2023-12-04T05:54:48;26.73;;;19.48;;
52468;SDS011;38381;53.688;10.776;2023-12-04T05:59:49;26.67;;;18.70;;
52468;SDS011;38381;53.688;10.776;2023-12-04T06:04:49;29.52;;;20.98;;
52468;SDS011;38381;53.688;10.776;2023-12-04T06:09:49;29.05;;;21.33;;
52468;SDS011;38381;53.688;10.776;2023-12-04T06:14:50;25.98;;;19.35;;
52468;SDS011;38381;53.688;10.776;2023-12-04T06:19:51;30.00;;;20.25;;
52468;SDS011;38381;53.688;10.776;2023-12-04T06:24:51;27.13;;;20.20;;
52468;SDS011;38381;53.688;10.776;2023-12-04T06:29:52;27.65;;;18.45;;
52468;SDS011;38381;53.688;10.776;2023-12-04T06:34:53;31.23;;;19.83;;
52468;SDS011;38381;53.688;10.776;2023-12-04T06:39:55;24.50;;;18.45;;
52468;SDS011;38381;53.688;10.776;2023-12-04T06:44:59;31.38;;;19.60;;
52468;SDS011;38381;53.688;10.776;2023-12-04T06:50:00;25.65;;;17.52;;
52468;SDS011;38381;53.688;10.776;2023-12-04T06:55:00;26.83;;;18.13;;
52468;SDS011;38381;53.688;10.776;2023-12-04T07:00:01;30.15;;;17.90;;
52468;SDS011;38381;53.688;10.776;2023-12-04T07:05:03;26.17;;;18.92;;
52468;SDS011;38381;53.688;10.776;2023-12-04T07:10:04;25.25;;;19.42;;
52468;SDS011;38381;53.688;10.776;2023-12-04T07:15:05;24.48;;;17.75;;
52468;SDS011;38381;53.688;10.776;2023-12-04T07:20:06;26.83;;;19.02;;
52468;SDS011;38381;53.688;10.776;2023-12-04T07:25:07;22.80;;;18.25;;
52468;SDS011;38381;53.688;10.776;2023-12-04T07:30:08;29.58;;;19.00;;
52468;SDS011;38381;53.688;10.776;2023-12-04T07:35:08;32.60;;;21.10;;
52468;SDS011;38381;53.688;10.776;2023-12-04T07:40:09;25.65;;;19.33;;
52468;SDS011;38381;53.688;10.776;2023-12-04T07:45:10;26.97;;;18.57;;
52468;SDS011;38381;53.688;10.776;2023-12-04T07:50:11;28.05;;;18.58;;
52468;SDS011;38381;53.688;10.776;2023-12-04T07:55:11;24.88;;;18.48;;
52468;SDS011;38381;53.688;10.776;2023-12-04T08:00:12;28.80;;;18.95;;
52468;SDS011;38381;53.688;10.776;2023-12-04T08:05:14;31.67;;;20.27;;
52468;SDS011;38381;53.688;10.776;2023-12-04T08:10:15;28.67;;;20.55;;
52468;SDS011;38381;53.688;10.776;2023-12-04T08:15:15;26.20;;;18.15;;
52468;SDS011;38381;53.688;10.776;2023-12-04T08:20:16;25.33;;;18.70;;
52468;SDS011;38381;53.688;10.776;2023-12-04T08:25:16;26.38;;;17.33;;
52468;SDS011;38381;53.688;10.776;2023-12-04T08:30:16;27.23;;;16.88;;
52468;SDS011;38381;53.688;10.776;2023-12-04T08:35:17;26.60;;;17.52;;
52468;SDS011;38381;53.688;10.776;2023-12-04T08:40:17;23.08;;;15.98;;
52468;SDS011;38381;53.688;10.776;2023-12-04T08:45:18;24.60;;;17.25;;
52468;SDS011;38381;53.688;10.776;2023-12-04T08:50:18;26.60;;;18.80;;
52468;SDS011;38381;53.688;10.776;2023-12-04T08:55:19;26.50;;;17.52;;
52468;SDS011;38381;53.688;10.776;2023-12-04T09:00:19;25.98;;;17.67;;
52468;SDS011;38381;53.688;10.776;2023-12-04T09:05:19;25.52;;;17.58;;
52468;SDS011;38381;53.688;10.776;2023-12-04T09:10:20;27.10;;;17.67;;
52468;SDS011;38381;53.688;10.776;2023-12-04T09:15:20;24.90;;;19.55;;
52468;SDS011;38381;53.688;10.776;2023-12-04T09:20:21;20.85;;;16.80;;
52468;SDS011;38381;53.688;10.776;2023-12-04T09:25:21;23.40;;;18.98;;
52468;SDS011;38381;53.688;10.776;2023-12-04T09:30:21;26.17;;;18.52;;
52468;SDS011;38381;53.688;10.776;2023-12-04T09:35:22;23.40;;;16.15;;
52468;SDS011;38381;53.688;10.776;2023-12-04T09:40:23;24.73;;;15.98;;
52468;SDS011;38381;53.688;10.776;2023-12-04T09:45:24;27.75;;;17.75;;
52468;SDS011;38381;53.688;10.776;2023-12-04T09:50:25;27.20;;;17.23;;
52468;SDS011;38381;53.688;10.776;2023-12-04T09:55:25;24.25;;;17.20;;
52468;SDS011;38381;53.688;10.776;2023-12-04T10:00:26;27.63;;;17.35;;
52468;SDS011;38381;53.688;10.776;2023-12-04T10:05:27;24.70;;;19.08;;
52468;SDS011;38381;53.688;10.776;2023-12-04T10:10:28;21.45;;;16.90;;
52468;SDS011;38381;53.688;10.776;2023-12-04T10:15:29;24.75;;;17.60;;
52468;SDS011;38381;53.688;10.776;2023-12-04T10:20:29;22.13;;;17.40;;
52468;SDS011;38381;53.688;10.776;2023-12-04T10:25:30;22.42;;;17.30;;
52468;SDS011;38381;53.688;10.776;2023-12-04T10:30:31;22.08;;;17.52;;
52468;SDS011;38381;53.688;10.776;2023-12-04T10:35:32;25.20;;;18.27;;
52468;SDS011;38381;53.688;10.776;2023-12-04T10:40:36;22.90;;;17.85;;
52468;SDS011;38381;53.688;10.776;2023-12-04T10:45:37;23.98;;;17.60;;
52468;SDS011;38381;53.688;10.776;2023-12-04T10:50:40;22.85;;;17.63;;
52468;SDS011;38381;53.688;10.776;2023-12-04T10:55:42;22.60;;;17.42;;
52468;SDS011;38381;53.688;10.776;2023-12-04T11:00:45;25.65;;;18.23;;
52468;SDS011;38381;53.688;10.776;2023-12-04T11:05:49;21.13;;;15.02;;
52468;SDS011;38381;53.688;10.776;2023-12-04T11:11:04;22.88;;;19.30;;
52468;SDS011;38381;53.688;10.776;2023-12-04T11:16:15;24.20;;;17.58;;
52468;SDS011;38381;53.688;10.776;2023-12-04T11:21:22;21.40;;;14.90;;
52468;SDS011;38381;53.688;10.776;2023-12-04T11:26:24;27.87;;;17.20;;
52468;SDS011;38381;53.688;10.776;2023-12-04T11:31:25;22.98;;;17.10;;
52468;SDS011;38381;53.688;10.776;2023-12-04T11:36:27;24.73;;;16.75;;
52468;SDS011;38381;53.688;10.776;2023-12-04T11:41:28;27.55;;;20.63;;
52468;SDS011;38381;53.688;10.776;2023-12-04T11:46:30;23.92;;;16.95;;
52468;SDS011;38381;53.688;10.776;2023-12-04T12:02:11;22.42;;;15.95;;
52468;SDS011;38381;53.688;10.776;2023-12-04T12:07:11;24.67;;;17.25;;
52468;SDS011;38381;53.688;10.776;2023-12-04T12:12:12;19.10;;;14.30;;
52468;SDS011;38381;53.688;10.776;2023-12-04T12:17:13;23.60;;;16.07;;
52468;SDS011;38381;53.688;10.776;2023-12-04T12:22:14;20.95;;;16.13;;
52468;SDS011;38381;53.688;10.776;2023-12-04T12:27:14;23.17;;;17.67;;
52468;SDS011;38381;53.688;10.776;2023-12-04T12:32:15;18.27;;;14.55;;
52468;SDS011;38381;53.688;10.776;2023-12-04T12:37:15;19.13;;;14.18;;
52468;SDS011;38381;53.688;10.776;2023-12-04T12:42:29;18.27;;;15.38;;
52468;SDS011;38381;53.688;10.776;2023-12-04T12:47:29;24.40;;;15.55;;
52468;SDS011;38381;53.688;10.776;2023-12-04T12:52:30;20.05;;;15.55;;
52468;SDS011;38381;53.688;10.776;2023-12-04T12:57:33;18.70;;;16.08;;
52468;SDS011;38381;53.688;10.776;2023-12-04T13:02:35;19.27;;;15.18;;
52468;SDS011;38381;53.688;10.776;2023-12-04T13:12:37;20.48;;;17.55;;
52468;SDS011;38381;53.688;10.776;2023-12-04T13:17:37;27.75;;;17.17;;
52468;SDS011;38381;53.688;10.776;2023-12-04T13:22:38;23.38;;;18.15;;
52468;SDS011;38381;53.688;10.776;2023-12-04T13:27:38;22.70;;;15.63;;
52468;SDS011;38381;53.688;10.776;2023-12-04T13:32:39;18.20;;;14.85;;
52468;SDS011;38381;53.688;10.776;2023-12-04T13:37:42;18.95;;;15.02;;
52468;SDS011;38381;53.688;10.776;2023-12-04T13:42:43;17.38;;;15.45;;
52468;SDS011;38381;53.688;10.776;2023-12-04T13:48:03;19.38;;;14.77;;
52468;SDS011;38381;53.688;10.776;2023-12-04T13:53:03;17.90;;;14.00;;
52468;SDS011;38381;53.688;10.776;2023-12-04T13:58:06;16.13;;;14.18;;
52468;SDS011;38381;53.688;10.776;2023-12-04T14:03:10;18.63;;;14.25;;
52468;SDS011;38381;53.688;10.776;2023-12-04T14:08:11;20.35;;;14.05;;
52468;SDS011;38381;53.688;10.776;2023-12-04T14:13:11;19.45;;;14.60;;
52468;SDS011;38381;53.688;10.776;2023-12-04T14:18:12;18.23;;;13.57;;
52468;SDS011;38381;53.688;10.776;2023-12-04T14:23:13;15.52;;;13.02;;
52468;SDS011;38381;53.688;10.776;2023-12-04T14:28:15;14.70;;;12.17;;
52468;SDS011;38381;53.688;10.776;2023-12-04T14:33:15;15.20;;;12.60;;
52468;SDS011;38381;53.688;10.776;2023-12-04T14:38:16;14.25;;;11.75;;
52468;SDS011;38381;53.688;10.776;2023-12-04T14:43:16;13.00;;;11.05;;
52468;SDS011;38381;53.688;10.776;2023-12-04T14:48:16;13.65;;;11.40;;
52468;SDS011;38381;53.688;10.776;2023-12-04T14:53:17;17.65;;;13.93;;
52468;SDS011;38381;53.688;10.776;2023-12-04T14:58:23;14.23;;;11.70;;
52468;SDS011;38381;53.688;10.776;2023-12-04T15:03:36;14.13;;;10.65;;
52468;SDS011;38381;53.688;10.776;2023-12-04T15:08:56;12.10;;;10.40;;
52468;SDS011;38381;53.688;10.776;2023-12-04T15:14:12;12.93;;;10.40;;
52468;SDS011;38381;53.688;10.776;2023-12-04T15:19:37;11.82;;;9.23;;
52468;SDS011;38381;53.688;10.776;2023-12-04T15:24:48;12.25;;;11.05;;
52468;SDS011;38381;53.688;10.776;2023-12-04T15:29:48;12.88;;;10.13;;
52468;SDS011;38381;53.688;10.776;2023-12-04T15:34:49;13.27;;;11.02;;
52468;SDS011;38381;53.688;10.776;2023-12-04T15:39:49;12.77;;;10.90;;
52468;SDS011;38381;53.688;10.776;2023-12-04T15:44:51;11.18;;;10.05;;
52468;SDS011;38381;53.688;10.776;2023-12-04T15:49:51;11.00;;;9.45;;
52468;SDS011;38381;53.688;10.776;2023-12-04T15:54:52;9.48;;;8.40;;
52468;SDS011;38381;53.688;10.776;2023-12-04T15:59:52;8.30;;;7.40;;
52468;SDS011;38381;53.688;10.776;2023-12-04T16:04:53;9.93;;;8.95;;
52468;SDS011;38381;53.688;10.776;2023-12-04T16:09:53;8.88;;;7.18;;
52468;SDS011;38381;53.688;10.776;2023-12-04T16:14:54;11.77;;;8.38;;
52468;SDS011;38381;53.688;10.776;2023-12-04T16:19:54;7.25;;;6.43;;
52468;SDS011;38381;53.688;10.776;2023-12-04T16:25:00;9.10;;;7.75;;
52468;SDS011;38381;53.688;10.776;2023-12-04T16:30:00;9.35;;;8.45;;
52468;SDS011;38381;53.688;10.776;2023-12-04T16:35:02;8.52;;;7.53;;
52468;SDS011;38381;53.688;10.776;2023-12-04T16:40:03;8.82;;;6.95;;
52468;SDS011;38381;53.688;10.776;2023-12-04T16:45:04;9.47;;;7.87;;
52468;SDS011;38381;53.688;10.776;2023-12-04T16:50:06;9.47;;;8.27;;
52468;SDS011;38381;53.688;10.776;2023-12-04T16:55:06;9.93;;;7.03;;
52468;SDS011;38381;53.688;10.776;2023-12-04T17:00:08;8.30;;;7.22;;
52468;SDS011;38381;53.688;10.776;2023-12-04T17:05:09;9.52;;;8.40;;
52468;SDS011;38381;53.688;10.776;2023-12-04T17:10:10;10.27;;;6.03;;
52468;SDS011;38381;53.688;10.776;2023-12-04T17:15:11;10.13;;;9.13;;
52468;SDS011;38381;53.688;10.776;2023-12-04T17:20:12;9.68;;;7.50;;
52468;SDS011;38381;53.688;10.776;2023-12-04T17:25:12;7.18;;;6.47;;
52468;SDS011;38381;53.688;10.776;2023-12-04T17:30:13;7.38;;;6.53;;
52468;SDS011;38381;53.688;10.776;2023-12-04T17:35:14;10.07;;;7.18;;
52468;SDS011;38381;53.688;10.776;2023-12-04T17:40:15;8.98;;;7.38;;
52468;SDS011;38381;53.688;10.776;2023-12-04T17:45:16;8.30;;;7.50;;
52468;SDS011;38381;53.688;10.776;2023-12-04T17:50:16;8.68;;;7.75;;
52468;SDS011;38381;53.688;10.776;2023-12-04T17:55:20;12.80;;;8.55;;
52468;SDS011;38381;53.688;10.776;2023-12-04T18:00:24;9.68;;;8.32;;
52468;SDS011;38381;53.688;10.776;2023-12-04T18:05:24;9.35;;;8.27;;
52468;SDS011;38381;53.688;10.776;2023-12-04T18:10:25;8.65;;;7.78;;
52468;SDS011;38381;53.688;10.776;2023-12-04T18:15:26;9.65;;;8.32;;
52468;SDS011;38381;53.688;10.776;2023-12-04T18:20:27;9.70;;;7.90;;
52468;SDS011;38381;53.688;10.776;2023-12-04T18:25:28;9.88;;;7.93;;
52468;SDS011;38381;53.688;10.776;2023-12-04T18:30:29;11.20;;;7.72;;
52468;SDS011;38381;53.688;10.776;2023-12-04T18:35:30;8.52;;;7.68;;
52468;SDS011;38381;53.688;10.776;2023-12-04T18:40:31;12.35;;;8.73;;
52468;SDS011;38381;53.688;10.776;2023-12-04T18:45:32;10.45;;;9.35;;
52468;SDS011;38381;53.688;10.776;2023-12-04T18:50:34;10.82;;;8.65;;
52468;SDS011;38381;53.688;10.776;2023-12-04T18:55:37;19.13;;;13.57;;
52468;SDS011;38381;53.688;10.776;2023-12-04T19:00:40;17.52;;;11.95;;
52468;SDS011;38381;53.688;10.776;2023-12-04T19:05:40;15.65;;;13.00;;
52468;SDS011;38381;53.688;10.776;2023-12-04T19:10:41;20.17;;;15.30;;
52468;SDS011;38381;53.688;10.776;2023-12-04T19:15:42;15.23;;;12.18;;
52468;SDS011;38381;53.688;10.776;2023-12-04T19:20:42;14.88;;;12.13;;
52468;SDS011;38381;53.688;10.776;2023-12-04T19:25:43;13.93;;;10.57;;
52468;SDS011;38381;53.688;10.776;2023-12-04T19:30:44;17.00;;;12.27;;
52468;SDS011;38381;53.688;10.776;2023-12-04T19:35:44;17.08;;;11.82;;
52468;SDS011;38381;53.688;10.776;2023-12-04T19:40:48;18.13;;;14.50;;
52468;SDS011;38381;53.688;10.776;2023-12-04T19:45:49;15.13;;;13.45;;
52468;SDS011;38381;53.688;10.776;2023-12-04T19:50:52;9.75;;;8.20;;
52468;SDS011;38381;53.688;10.776;2023-12-04T19:55:55;29.60;;;16.38;;
52468;SDS011;38381;53.688;10.776;2023-12-04T20:00:56;11.23;;;10.05;;
52468;SDS011;38381;53.688;10.776;2023-12-04T20:05:56;11.57;;;9.68;;
52468;SDS011;38381;53.688;10.776;2023-12-04T20:10:57;11.80;;;9.73;;
52468;SDS011;38381;53.688;10.776;2023-12-04T20:15:57;11.23;;;9.52;;
52468;SDS011;38381;53.688;10.776;2023-12-04T20:20:58;11.43;;;9.70;;
52468;SDS011;38381;53.688;10.776;2023-12-04T20:25:58;10.35;;;8.80;;
52468;SDS011;38381;53.688;10.776;2023-12-04T20:31:00;12.93;;;9.52;;
52468;SDS011;38381;53.688;10.776;2023-12-04T20:36:00;10.82;;;9.13;;
52468;SDS011;38381;53.688;10.776;2023-12-04T20:41:07;10.48;;;9.02;;
52468;SDS011;38381;53.688;10.776;2023-12-04T20:46:08;13.80;;;9.50;;
52468;SDS011;38381;53.688;10.776;2023-12-04T20:51:11;13.55;;;9.45;;
52468;SDS011;38381;53.688;10.776;2023-12-04T20:56:16;11.93;;;9.40;;
52468;SDS011;38381;53.688;10.776;2023-12-04T21:01:18;9.98;;;8.68;;
52468;SDS011;38381;53.688;10.776;2023-12-04T21:06:18;11.18;;;8.48;;
52468;SDS011;38381;53.688;10.776;2023-12-04T21:11:19;11.55;;;10.27;;
52468;SDS011;38381;53.688;10.776;2023-12-04T21:16:20;13.70;;;8.52;;
52468;SDS011;38381;53.688;10.776;2023-12-04T21:21:20;10.77;;;9.68;;
52468;SDS011;38381;53.688;10.776;2023-12-04T21:26:21;11.50;;;9.95;;
52468;SDS011;38381;53.688;10.776;2023-12-04T21:31:21;14.35;;;11.50;;
52468;SDS011;38381;53.688;10.776;2023-12-04T21:36:22;15.57;;;12.38;;
52468;SDS011;38381;53.688;10.776;2023-12-04T21:41:23;15.13;;;11.20;;
52468;SDS011;38381;53.688;10.776;2023-12-04T21:46:23;12.30;;;10.90;;
52468;SDS011;38381;53.688;10.776;2023-12-04T21:51:24;12.15;;;10.70;;
52468;SDS011;38381;53.688;10.776;2023-12-04T21:56:25;13.40;;;12.05;;
52468;SDS011;38381;53.688;10.776;2023-12-04T22:01:25;13.57;;;10.15;;
52468;SDS011;38381;53.688;10.776;2023-12-04T22:06:26;13.32;;;10.10;;
52468;SDS011;38381;53.688;10.776;2023-12-04T22:11:26;13.98;;;9.95;;
52468;SDS011;38381;53.688;10.776;2023-12-04T22:16:27;12.50;;;10.25;;
52468;SDS011;38381;53.688;10.776;2023-12-04T22:21:27;11.13;;;9.98;;
52468;SDS011;38381;53.688;10.776;2023-12-04T22:26:27;15.23;;;10.55;;
52468;SDS011;38381;53.688;10.776;2023-12-04T22:31:28;12.68;;;9.95;;
52468;SDS011;38381;53.688;10.776;2023-12-04T22:36:28;13.38;;;10.82;;
52468;SDS011;38381;53.688;10.776;2023-12-04T22:41:29;13.95;;;11.02;;
52468;SDS011;38381;53.688;10.776;2023-12-04T22:46:29;12.13;;;10.45;;
52468;SDS011;38381;53.688;10.776;2023-12-04T22:51:30;12.15;;;9.95;;
52468;SDS011;38381;53.688;10.776;2023-12-04T22:56:30;13.88;;;10.85;;
52468;SDS011;38381;53.688;10.776;2023-12-04T23:01:31;12.13;;;10.90;;
52468;SDS011;38381;53.688;10.776;2023-12-04T23:06:31;12.85;;;10.88;;
52468;SDS011;38381;53.688;10.776;2023-12-04T23:11:32;14.07;;;11.43;;
52468;SDS011;38381;53.688;10.776;2023-12-04T23:16:32;12.48;;;10.70;;
52468;SDS011;38381;53.688;10.776;2023-12-04T23:21:33;14.10;;;11.15;;
52468;SDS011;38381;53.688;10.776;2023-12-04T23:26:33;13.98;;;11.85;;
52468;SDS011;38381;53.688;10.776;2023-12-04T23:31:34;12.95;;;10.52;;
52468;SDS011;38381;53.688;10.776;2023-12-04T23:36:34;13.02;;;11.25;;
52468;SDS011;38381;53.688;10.776;2023-12-04T23:41:35;13.40;;;11.40;;
52468;SDS011;38381;53.688;10.776;2023-12-04T23:46:36;11.95;;;10.25;;
52468;SDS011;38381;53.688;10.776;2023-12-04T23:51:36;12.38;;;10.35;;
52468;SDS011;38381;53.688;10.776;2023-12-04T23:56:37;14.50;;;10.65;;
